createdAt,value
2023-02-11T00:00:08.027Z,8.80
2023-02-11T00:03:50.138Z,8.98
2023-02-11T00:07:33.740Z,7.05
2023-02-11T00:11:18.834Z,4.32
2023-02-11T00:15:00.768Z,6.45
2023-02-11T00:18:43.095Z,8.93
2023-02-11T00:22:25.063Z,6.10
2023-02-11T00:26:19.549Z,5.80
2023-02-11T00:30:02.652Z,6.65
2023-02-11T00:33:45.671Z,8.23
2023-02-11T00:37:27.768Z,7.82
2023-02-11T00:41:09.779Z,6.63
2023-02-11T00:44:51.775Z,5.63
2023-02-11T00:48:34.514Z,6.20
2023-02-11T00:52:16.517Z,6.65
2023-02-11T00:55:58.511Z,5.05
2023-02-11T00:59:40.601Z,8.15
2023-02-11T01:03:22.558Z,6.18
2023-02-11T01:07:04.534Z,9.00
2023-02-11T01:10:53.356Z,3.15
2023-02-11T01:14:35.281Z,6.55
2023-02-11T01:18:17.309Z,5.20
2023-02-11T01:21:59.331Z,4.43
2023-02-11T01:25:41.252Z,9.23
2023-02-11T01:29:23.521Z,10.25
2023-02-11T01:33:05.429Z,7.65
2023-02-11T01:36:47.372Z,8.02
2023-02-11T01:40:29.316Z,5.95
2023-02-11T01:44:33.677Z,5.50
2023-02-11T01:48:28.957Z,5.60
2023-02-11T01:52:38.143Z,5.70
2023-02-11T01:56:39.621Z,5.13
2023-02-11T02:00:40.435Z,5.88
2023-02-11T02:04:27.535Z,7.53
2023-02-11T02:08:23.051Z,6.45
2023-02-11T02:12:05.166Z,4.35
2023-02-11T02:15:53.370Z,4.65
2023-02-11T02:20:16.931Z,4.93
2023-02-11T02:24:17.438Z,8.02
2023-02-11T02:28:29.944Z,9.18
2023-02-11T02:32:20.017Z,6.38
2023-02-11T02:36:17.276Z,13.00
2023-02-11T02:40:03.667Z,6.70
2023-02-11T02:43:49.289Z,8.30
2023-02-11T02:47:31.192Z,4.15
2023-02-11T02:51:24.862Z,4.20
2023-02-11T02:55:18.585Z,3.78
2023-02-11T02:59:29.953Z,6.72
2023-02-11T03:03:30.369Z,6.47
2023-02-11T03:07:23.002Z,6.25
2023-02-11T03:11:06.978Z,5.30
2023-02-11T03:14:52.531Z,4.43
2023-02-11T03:18:36.927Z,2.42
2023-02-11T03:22:34.717Z,3.97
2023-02-11T03:26:53.550Z,4.55
2023-02-11T03:30:43.462Z,3.90
2023-02-11T03:34:46.432Z,4.63
2023-02-11T03:38:42.947Z,4.03
2023-02-11T03:42:30.518Z,3.53
2023-02-11T03:46:15.348Z,5.82
2023-02-11T03:49:59.484Z,2.97
2023-02-11T03:53:44.703Z,5.70
2023-02-11T03:57:26.635Z,4.07
2023-02-11T04:01:09.973Z,5.30
2023-02-11T04:04:51.957Z,5.82
2023-02-11T04:08:33.967Z,3.90
2023-02-11T04:12:15.939Z,11.18
2023-02-11T04:15:57.900Z,4.30
2023-02-11T04:19:39.886Z,6.88
2023-02-11T04:23:21.843Z,9.82
2023-02-11T04:27:03.894Z,4.43
2023-02-11T04:30:45.871Z,6.25
2023-02-11T04:34:28.346Z,5.63
2023-02-11T04:38:10.290Z,7.68
2023-02-11T04:41:52.237Z,8.70
2023-02-11T04:45:34.238Z,8.65
2023-02-11T04:49:17.696Z,5.97
2023-02-11T04:52:59.613Z,5.20
2023-02-11T04:56:41.639Z,4.20
2023-02-11T05:00:23.604Z,3.10
2023-02-11T05:04:05.594Z,5.90
2023-02-11T05:07:48.415Z,6.32
2023-02-11T05:11:30.436Z,5.22
2023-02-11T05:15:12.425Z,6.22
2023-02-11T05:18:55.874Z,4.68
2023-02-11T05:22:37.812Z,7.28
2023-02-11T05:26:19.785Z,4.80
2023-02-11T05:30:01.760Z,5.18
2023-02-11T05:33:43.770Z,7.35
2023-02-11T05:37:25.767Z,6.63
2023-02-11T05:41:07.836Z,5.93
2023-02-11T05:44:50.787Z,8.00
2023-02-11T05:48:33.314Z,7.88
2023-02-11T05:52:15.287Z,24.88
2023-02-11T05:55:57.614Z,16.08
2023-02-11T05:59:39.618Z,6.88
2023-02-11T06:03:21.570Z,15.10
2023-02-11T06:07:04.251Z,5.35
2023-02-11T06:10:46.284Z,4.30
2023-02-11T06:14:28.228Z,3.38
2023-02-11T06:18:10.890Z,6.95
2023-02-11T06:21:52.775Z,9.57
2023-02-11T06:25:34.798Z,7.57
2023-02-11T06:29:16.732Z,6.68
2023-02-11T06:32:58.735Z,5.63
2023-02-11T06:36:41.212Z,9.63
2023-02-11T06:40:23.159Z,8.00
2023-02-11T06:44:05.593Z,5.55
2023-02-11T06:47:47.547Z,5.68
2023-02-11T06:51:29.585Z,7.68
2023-02-11T06:55:11.536Z,9.60
2023-02-11T06:58:58.169Z,6.15
2023-02-11T07:02:40.224Z,6.28
2023-02-11T07:06:24.895Z,7.93
2023-02-11T07:10:07.182Z,8.45
2023-02-11T07:13:49.200Z,9.77
2023-02-11T07:17:31.137Z,7.72
2023-02-11T07:21:15.628Z,7.93
2023-02-11T07:24:57.565Z,7.03
2023-02-11T07:28:40.491Z,9.05
2023-02-11T07:32:22.378Z,6.47
2023-02-11T07:36:06.252Z,8.35
2023-02-11T07:39:48.163Z,6.05
2023-02-11T07:43:31.803Z,5.68
2023-02-11T07:47:13.696Z,6.78
2023-02-11T07:50:55.606Z,12.05
2023-02-11T07:54:37.569Z,9.27
2023-02-11T07:58:19.538Z,5.32
2023-02-11T08:02:01.513Z,4.78
2023-02-11T08:05:43.962Z,6.32
2023-02-11T08:09:25.955Z,3.90
2023-02-11T08:13:07.941Z,6.47
2023-02-11T08:16:49.974Z,8.27
2023-02-11T08:20:32.229Z,7.93
2023-02-11T08:24:14.164Z,10.48
2023-02-11T08:27:56.121Z,6.80
2023-02-11T08:31:40.989Z,8.38
2023-02-11T08:35:23.369Z,9.23
2023-02-11T08:39:18.751Z,6.82
2023-02-11T08:43:01.515Z,4.75
2023-02-11T08:46:43.480Z,7.88
2023-02-11T08:50:28.020Z,6.88
2023-02-11T08:54:10.152Z,6.68
2023-02-11T08:57:52.139Z,6.85
2023-02-11T09:01:34.333Z,6.47
2023-02-11T09:05:16.374Z,19.20
2023-02-11T09:08:58.814Z,8.07
2023-02-11T09:12:40.829Z,8.02
2023-02-11T09:16:26.119Z,11.68
2023-02-11T09:20:10.760Z,9.10
2023-02-11T09:23:53.051Z,8.45
2023-02-11T09:27:35.002Z,6.68
2023-02-11T09:31:19.565Z,8.07
2023-02-11T09:35:01.576Z,10.05
2023-02-11T09:38:44.747Z,7.75
2023-02-11T09:42:45.241Z,8.57
2023-02-11T09:46:31.177Z,11.15
2023-02-11T09:50:18.354Z,9.38
2023-02-11T09:54:05.751Z,32.00
2023-02-11T09:57:48.000Z,13.18
2023-02-11T10:01:46.230Z,9.63
2023-02-11T10:05:43.324Z,11.45
2023-02-11T10:09:37.824Z,10.40
2023-02-11T10:13:51.605Z,11.23
2023-02-11T10:17:42.538Z,11.95
2023-02-11T10:21:46.717Z,7.85
2023-02-11T10:25:38.862Z,9.05
2023-02-11T10:29:50.205Z,13.80
2023-02-11T10:33:37.335Z,13.25
2023-02-11T10:37:19.271Z,6.57
2023-02-11T10:41:01.175Z,9.57
2023-02-11T10:44:56.926Z,8.23
2023-02-11T10:48:49.605Z,8.35
2023-02-11T10:52:31.829Z,26.08
2023-02-11T10:56:27.681Z,10.52
2023-02-11T11:00:18.597Z,22.95
2023-02-11T11:04:00.597Z,6.28
2023-02-11T11:07:56.757Z,5.45
2023-02-11T11:11:53.730Z,9.27
2023-02-11T11:15:35.866Z,11.18
2023-02-11T11:19:25.756Z,7.53
2023-02-11T11:23:18.658Z,7.00
2023-02-11T11:27:04.257Z,4.20
2023-02-11T11:30:46.344Z,5.70
2023-02-11T11:34:32.242Z,4.20
2023-02-11T11:38:15.572Z,6.60
2023-02-11T11:42:00.917Z,6.10
2023-02-11T11:46:00.327Z,8.13
2023-02-11T11:50:02.470Z,6.28
2023-02-11T11:54:15.520Z,9.63
2023-02-11T11:57:58.499Z,6.38
2023-02-11T12:01:55.768Z,6.95
2023-02-11T12:06:15.348Z,7.95
2023-02-11T12:10:27.680Z,5.43
2023-02-11T12:14:15.322Z,5.70
2023-02-11T12:18:38.720Z,7.70
2023-02-11T12:22:33.609Z,6.55
2023-02-11T12:26:24.055Z,6.55
2023-02-11T12:30:36.756Z,7.85
2023-02-11T12:34:46.677Z,7.38
2023-02-11T12:39:03.616Z,8.27
2023-02-11T12:43:18.077Z,9.23
2023-02-11T12:47:15.516Z,8.05
2023-02-11T12:51:27.911Z,6.15
2023-02-11T12:55:23.094Z,7.68
2023-02-11T12:59:14.354Z,8.32
2023-02-11T13:03:19.188Z,8.48
2023-02-11T13:07:06.435Z,8.95
2023-02-11T13:10:53.289Z,10.90
2023-02-11T13:14:38.869Z,8.48
2023-02-11T13:18:37.050Z,8.55
2023-02-11T13:22:38.625Z,5.97
2023-02-11T13:26:35.152Z,10.43
2023-02-11T13:30:32.491Z,13.77
2023-02-11T13:34:44.685Z,8.65
2023-02-11T13:38:31.449Z,9.15
2023-02-11T13:42:16.534Z,7.63
2023-02-11T13:46:06.185Z,8.38
2023-02-11T13:49:52.280Z,9.40
2023-02-11T13:53:52.333Z,9.50
2023-02-11T13:57:36.707Z,9.77
2023-02-11T14:02:12.913Z,14.23
2023-02-11T14:06:28.478Z,8.77
2023-02-11T14:10:44.129Z,6.78
2023-02-11T14:14:33.964Z,10.70
2023-02-11T14:18:57.872Z,6.45
2023-02-11T14:22:52.777Z,10.30
2023-02-11T14:26:57.825Z,10.20
2023-02-11T14:30:46.213Z,8.68
2023-02-11T14:34:46.825Z,12.52
2023-02-11T14:38:56.429Z,7.63
2023-02-11T14:42:38.819Z,6.82
2023-02-11T14:46:22.138Z,9.10
2023-02-11T14:50:07.857Z,10.32
2023-02-11T14:53:54.196Z,9.38
2023-02-11T14:57:37.895Z,6.45
2023-02-11T15:01:30.274Z,6.85
2023-02-11T15:05:27.534Z,7.60
2023-02-11T15:09:24.216Z,6.90
2023-02-11T15:13:06.371Z,10.77
2023-02-11T15:16:48.825Z,9.13
2023-02-11T15:20:33.678Z,7.00
2023-02-11T15:24:28.735Z,4.93
2023-02-11T15:28:26.511Z,10.63
2023-02-11T15:32:19.088Z,5.97
2023-02-11T15:36:03.002Z,6.47
2023-02-11T15:39:46.333Z,8.52
2023-02-11T15:43:48.783Z,5.05
2023-02-11T15:47:30.730Z,8.95
2023-02-11T15:51:25.320Z,7.45
2023-02-11T15:55:13.810Z,5.03
2023-02-11T15:59:00.174Z,11.52
2023-02-11T16:02:46.658Z,6.93
2023-02-11T16:06:41.143Z,7.40
2023-02-11T16:10:35.208Z,6.88
2023-02-11T16:14:24.428Z,11.02
2023-02-11T16:18:19.604Z,6.88
2023-02-11T16:22:10.433Z,7.90
2023-02-11T16:25:58.537Z,6.88
2023-02-11T16:33:22.715Z,7.55
2023-02-11T16:37:05.887Z,10.90
2023-02-11T16:40:50.025Z,10.75
2023-02-11T16:44:33.403Z,9.85
2023-02-11T16:48:19.349Z,11.45
2023-02-11T16:52:05.773Z,8.27
2023-02-11T16:55:47.739Z,6.30
2023-02-11T16:59:29.677Z,6.43
2023-02-11T17:03:22.383Z,4.47
2023-02-11T17:07:04.296Z,11.05
2023-02-11T17:10:46.210Z,18.95
2023-02-11T17:14:28.314Z,7.82
2023-02-11T17:18:14.363Z,11.27
2023-02-11T17:21:56.306Z,13.05
2023-02-11T17:25:38.542Z,10.60
2023-02-11T17:29:23.086Z,8.95
2023-02-11T17:33:05.060Z,13.68
2023-02-11T17:36:46.985Z,14.32
2023-02-11T17:40:28.990Z,12.10
2023-02-11T17:44:16.462Z,15.65
2023-02-11T17:47:59.006Z,16.38
2023-02-11T17:51:41.057Z,22.33
2023-02-11T17:55:23.010Z,30.25
2023-02-11T17:59:06.865Z,18.23
2023-02-11T18:02:48.959Z,21.65
2023-02-11T18:06:33.766Z,23.45
2023-02-11T18:10:15.725Z,24.63
2023-02-11T18:13:59.938Z,13.40
2023-02-11T18:17:41.992Z,10.65
2023-02-11T18:21:24.668Z,10.52
2023-02-11T18:25:08.242Z,11.65
2023-02-11T18:28:52.602Z,16.42
2023-02-11T18:32:34.516Z,13.52
2023-02-11T18:36:16.797Z,15.80
2023-02-11T18:39:58.713Z,23.00
2023-02-11T18:43:40.737Z,13.02
2023-02-11T18:47:22.649Z,13.25
2023-02-11T18:51:10.161Z,22.67
2023-02-11T18:54:52.438Z,16.70
2023-02-11T18:58:34.385Z,13.15
2023-02-11T19:02:17.165Z,10.05
2023-02-11T19:05:59.067Z,19.25
2023-02-11T19:09:40.995Z,15.75
2023-02-11T19:13:22.959Z,19.00
2023-02-11T19:17:08.408Z,22.60
2023-02-11T19:20:50.347Z,19.27
2023-02-11T19:24:33.303Z,17.20
2023-02-11T19:28:15.915Z,19.77
2023-02-11T19:31:58.213Z,17.10
2023-02-11T19:35:40.163Z,15.02
2023-02-11T19:39:24.125Z,16.10
2023-02-11T19:43:06.083Z,18.27
2023-02-11T19:46:50.243Z,23.00
2023-02-11T19:50:32.231Z,20.77
2023-02-11T19:54:14.161Z,24.08
2023-02-11T19:57:56.270Z,28.38
2023-02-11T20:01:38.258Z,34.28
2023-02-11T20:05:20.209Z,35.08
2023-02-11T20:09:06.624Z,39.95
2023-02-11T20:12:48.599Z,86.70
2023-02-11T20:16:47.079Z,45.25
2023-02-11T20:20:30.365Z,26.67
2023-02-11T20:24:12.246Z,27.20
2023-02-11T20:27:55.080Z,27.40
2023-02-11T20:31:37.360Z,40.30
2023-02-11T20:35:19.422Z,27.20
2023-02-11T20:39:03.012Z,33.58
2023-02-11T20:42:45.009Z,31.92
2023-02-11T20:46:29.442Z,25.73
2023-02-11T20:50:12.101Z,26.02
2023-02-11T20:53:54.713Z,30.55
2023-02-11T20:57:36.654Z,37.08
2023-02-11T21:01:24.458Z,38.88
2023-02-11T21:05:06.617Z,37.78
2023-02-11T21:08:48.820Z,35.92
2023-02-11T21:12:30.781Z,40.65
2023-02-11T21:16:17.065Z,46.83
2023-02-11T21:19:59.020Z,43.55
2023-02-11T21:23:41.129Z,33.45
2023-02-11T21:27:24.066Z,30.13
2023-02-11T21:31:06.436Z,32.47
2023-02-11T21:34:48.544Z,33.78
2023-02-11T21:38:31.271Z,33.05
2023-02-11T21:42:13.221Z,32.25
2023-02-11T21:45:55.433Z,33.92
2023-02-11T21:49:37.716Z,28.73
2023-02-11T21:53:19.680Z,31.65
2023-02-11T21:57:03.189Z,28.98
2023-02-11T22:00:45.134Z,27.88
2023-02-11T22:04:27.360Z,25.58
2023-02-11T22:08:09.400Z,43.20
2023-02-11T22:11:51.372Z,39.60
2023-02-11T22:15:33.280Z,36.53
2023-02-11T22:19:15.299Z,28.33
2023-02-11T22:22:58.342Z,26.58
2023-02-11T22:26:41.061Z,30.48
2023-02-11T22:30:22.973Z,28.17
2023-02-11T22:34:05.674Z,26.52
2023-02-11T22:37:47.553Z,25.65
2023-02-11T22:41:29.720Z,24.08
2023-02-11T22:45:11.600Z,22.92
2023-02-11T22:48:53.664Z,22.30
2023-02-11T22:52:36.311Z,24.58
2023-02-11T22:56:18.473Z,21.63
2023-02-11T23:00:00.369Z,20.08
2023-02-11T23:03:42.741Z,20.67
2023-02-11T23:07:24.635Z,19.00
2023-02-11T23:11:09.881Z,21.88
2023-02-11T23:14:51.788Z,23.67
2023-02-11T23:18:35.343Z,19.70
2023-02-11T23:22:17.263Z,21.73
2023-02-11T23:25:59.640Z,30.17
2023-02-11T23:29:41.523Z,29.05
2023-02-11T23:33:23.591Z,42.65
2023-02-11T23:37:05.540Z,28.20
2023-02-11T23:40:47.462Z,23.58
2023-02-11T23:44:29.542Z,21.48
2023-02-11T23:48:11.409Z,22.77
2023-02-11T23:51:53.453Z,22.83
2023-02-11T23:55:39.974Z,20.40
2023-02-11T23:59:21.917Z,24.48
